sensor_id;sensor_type;location;lat;lon;timestamp;P1;durP1;ratioP1;P2;durP2;ratioP2
7080;SDS011;3582;51.506;11.948;2022-08-19T00:00:35;37.20;;;33.43;;
7080;SDS011;3582;51.506;11.948;2022-08-19T00:03:02;36.50;;;32.90;;
7080;SDS011;3582;51.506;11.948;2022-08-19T00:05:28;38.20;;;32.77;;
7080;SDS011;3582;51.506;11.948;2022-08-19T00:07:54;35.67;;;32.27;;
7080;SDS011;3582;51.506;11.948;2022-08-19T00:10:20;35.77;;;31.10;;
7080;SDS011;3582;51.506;11.948;2022-08-19T00:12:46;35.80;;;31.90;;
7080;SDS011;3582;51.506;11.948;2022-08-19T00:15:13;34.20;;;30.70;;
7080;SDS011;3582;51.506;11.948;2022-08-19T00:17:40;37.47;;;33.97;;
7080;SDS011;3582;51.506;11.948;2022-08-19T00:20:07;36.80;;;32.97;;
7080;SDS011;3582;51.506;11.948;2022-08-19T00:22:35;43.77;;;35.67;;
7080;SDS011;3582;51.506;11.948;2022-08-19T00:25:02;39.90;;;34.07;;
7080;SDS011;3582;51.506;11.948;2022-08-19T00:27:28;39.00;;;34.83;;
7080;SDS011;3582;51.506;11.948;2022-08-19T00:29:54;38.40;;;34.10;;
7080;SDS011;3582;51.506;11.948;2022-08-19T00:32:20;44.10;;;36.90;;
7080;SDS011;3582;51.506;11.948;2022-08-19T00:34:46;42.43;;;37.07;;
7080;SDS011;3582;51.506;11.948;2022-08-19T00:37:12;46.87;;;39.00;;
7080;SDS011;3582;51.506;11.948;2022-08-19T00:39:38;44.97;;;39.20;;
7080;SDS011;3582;51.506;11.948;2022-08-19T00:42:04;41.67;;;37.03;;
7080;SDS011;3582;51.506;11.948;2022-08-19T00:44:31;42.83;;;38.23;;
7080;SDS011;3582;51.506;11.948;2022-08-19T00:46:58;47.50;;;40.57;;
7080;SDS011;3582;51.506;11.948;2022-08-19T00:49:26;43.87;;;39.07;;
7080;SDS011;3582;51.506;11.948;2022-08-19T00:51:58;45.27;;;40.27;;
7080;SDS011;3582;51.506;11.948;2022-08-19T00:54:25;44.53;;;37.33;;
7080;SDS011;3582;51.506;11.948;2022-08-19T00:56:52;44.63;;;39.40;;
7080;SDS011;3582;51.506;11.948;2022-08-19T00:59:18;45.07;;;40.40;;
7080;SDS011;3582;51.506;11.948;2022-08-19T01:01:45;47.73;;;40.03;;
7080;SDS011;3582;51.506;11.948;2022-08-19T01:04:11;45.90;;;39.77;;
7080;SDS011;3582;51.506;11.948;2022-08-19T01:06:37;43.40;;;38.80;;
7080;SDS011;3582;51.506;11.948;2022-08-19T01:09:04;46.00;;;41.07;;
7080;SDS011;3582;51.506;11.948;2022-08-19T01:11:31;50.23;;;42.77;;
7080;SDS011;3582;51.506;11.948;2022-08-19T01:13:58;44.43;;;39.60;;
7080;SDS011;3582;51.506;11.948;2022-08-19T01:16:25;43.90;;;39.30;;
7080;SDS011;3582;51.506;11.948;2022-08-19T01:18:52;47.37;;;40.17;;
7080;SDS011;3582;51.506;11.948;2022-08-19T01:21:30;50.03;;;40.53;;
7080;SDS011;3582;51.506;11.948;2022-08-19T01:23:57;47.40;;;41.57;;
7080;SDS011;3582;51.506;11.948;2022-08-19T01:26:24;44.90;;;39.40;;
7080;SDS011;3582;51.506;11.948;2022-08-19T01:28:55;46.73;;;40.03;;
7080;SDS011;3582;51.506;11.948;2022-08-19T01:31:23;47.07;;;41.17;;
7080;SDS011;3582;51.506;11.948;2022-08-19T01:33:50;48.23;;;42.00;;
7080;SDS011;3582;51.506;11.948;2022-08-19T01:36:28;48.20;;;42.13;;
7080;SDS011;3582;51.506;11.948;2022-08-19T01:38:55;44.80;;;38.43;;
7080;SDS011;3582;51.506;11.948;2022-08-19T01:41:21;45.63;;;39.80;;
7080;SDS011;3582;51.506;11.948;2022-08-19T01:43:48;49.47;;;40.33;;
7080;SDS011;3582;51.506;11.948;2022-08-19T01:46:15;51.73;;;43.80;;
7080;SDS011;3582;51.506;11.948;2022-08-19T01:48:41;52.90;;;44.40;;
7080;SDS011;3582;51.506;11.948;2022-08-19T01:51:08;50.63;;;42.23;;
7080;SDS011;3582;51.506;11.948;2022-08-19T01:53:34;51.60;;;44.60;;
7080;SDS011;3582;51.506;11.948;2022-08-19T01:56:01;50.37;;;42.37;;
7080;SDS011;3582;51.506;11.948;2022-08-19T01:58:29;51.27;;;45.93;;
7080;SDS011;3582;51.506;11.948;2022-08-19T02:00:56;51.50;;;45.47;;
7080;SDS011;3582;51.506;11.948;2022-08-19T02:03:22;55.17;;;45.47;;
7080;SDS011;3582;51.506;11.948;2022-08-19T02:05:53;56.77;;;46.43;;
7080;SDS011;3582;51.506;11.948;2022-08-19T02:08:20;54.30;;;48.33;;
7080;SDS011;3582;51.506;11.948;2022-08-19T02:10:46;59.83;;;47.33;;
7080;SDS011;3582;51.506;11.948;2022-08-19T02:13:13;62.83;;;49.83;;
7080;SDS011;3582;51.506;11.948;2022-08-19T02:15:39;55.90;;;47.67;;
7080;SDS011;3582;51.506;11.948;2022-08-19T02:18:05;60.33;;;47.87;;
7080;SDS011;3582;51.506;11.948;2022-08-19T02:20:32;60.73;;;49.70;;
7080;SDS011;3582;51.506;11.948;2022-08-19T02:22:58;66.80;;;49.93;;
7080;SDS011;3582;51.506;11.948;2022-08-19T02:25:26;64.67;;;47.53;;
7080;SDS011;3582;51.506;11.948;2022-08-19T02:27:52;57.30;;;49.40;;
7080;SDS011;3582;51.506;11.948;2022-08-19T02:30:18;59.80;;;50.23;;
7080;SDS011;3582;51.506;11.948;2022-08-19T02:32:44;62.57;;;50.60;;
7080;SDS011;3582;51.506;11.948;2022-08-19T02:35:11;68.90;;;54.27;;
7080;SDS011;3582;51.506;11.948;2022-08-19T02:37:37;62.87;;;52.70;;
7080;SDS011;3582;51.506;11.948;2022-08-19T02:40:22;63.33;;;56.13;;
7080;SDS011;3582;51.506;11.948;2022-08-19T02:42:48;65.70;;;53.60;;
7080;SDS011;3582;51.506;11.948;2022-08-19T02:51:06;64.43;;;52.10;;
7080;SDS011;3582;51.506;11.948;2022-08-19T02:53:32;70.67;;;56.70;;
7080;SDS011;3582;51.506;11.948;2022-08-19T02:55:58;68.83;;;53.37;;
7080;SDS011;3582;51.506;11.948;2022-08-19T02:58:24;60.30;;;52.37;;
7080;SDS011;3582;51.506;11.948;2022-08-19T03:00:53;69.30;;;54.10;;
7080;SDS011;3582;51.506;11.948;2022-08-19T03:03:20;64.93;;;57.00;;
7080;SDS011;3582;51.506;11.948;2022-08-19T03:05:46;68.17;;;54.67;;
7080;SDS011;3582;51.506;11.948;2022-08-19T03:08:12;67.23;;;55.43;;
7080;SDS011;3582;51.506;11.948;2022-08-19T03:10:39;72.67;;;55.93;;
7080;SDS011;3582;51.506;11.948;2022-08-19T03:13:07;68.53;;;54.43;;
7080;SDS011;3582;51.506;11.948;2022-08-19T03:15:33;66.33;;;54.63;;
7080;SDS011;3582;51.506;11.948;2022-08-19T03:17:59;68.30;;;58.27;;
7080;SDS011;3582;51.506;11.948;2022-08-19T03:20:25;62.50;;;52.80;;
7080;SDS011;3582;51.506;11.948;2022-08-19T03:22:51;67.70;;;55.80;;
7080;SDS011;3582;51.506;11.948;2022-08-19T03:25:17;66.10;;;56.17;;
7080;SDS011;3582;51.506;11.948;2022-08-19T03:27:43;64.47;;;55.37;;
7080;SDS011;3582;51.506;11.948;2022-08-19T03:30:09;68.67;;;57.07;;
7080;SDS011;3582;51.506;11.948;2022-08-19T03:32:35;68.60;;;58.40;;
7080;SDS011;3582;51.506;11.948;2022-08-19T03:35:02;73.97;;;58.87;;
7080;SDS011;3582;51.506;11.948;2022-08-19T03:37:28;77.20;;;60.30;;
7080;SDS011;3582;51.506;11.948;2022-08-19T03:39:53;71.00;;;56.50;;
7080;SDS011;3582;51.506;11.948;2022-08-19T03:42:19;70.50;;;57.90;;
7080;SDS011;3582;51.506;11.948;2022-08-19T03:44:45;74.83;;;58.93;;
7080;SDS011;3582;51.506;11.948;2022-08-19T03:47:12;63.67;;;55.00;;
7080;SDS011;3582;51.506;11.948;2022-08-19T03:49:41;65.43;;;54.30;;
7080;SDS011;3582;51.506;11.948;2022-08-19T03:52:07;65.10;;;58.07;;
7080;SDS011;3582;51.506;11.948;2022-08-19T03:54:33;62.27;;;54.30;;
7080;SDS011;3582;51.506;11.948;2022-08-19T03:56:59;74.80;;;56.53;;
7080;SDS011;3582;51.506;11.948;2022-08-19T03:59:29;68.13;;;54.73;;
7080;SDS011;3582;51.506;11.948;2022-08-19T04:01:56;64.57;;;57.27;;
7080;SDS011;3582;51.506;11.948;2022-08-19T04:04:23;69.00;;;57.77;;
7080;SDS011;3582;51.506;11.948;2022-08-19T04:06:49;69.50;;;59.10;;
7080;SDS011;3582;51.506;11.948;2022-08-19T04:09:16;66.30;;;56.40;;
7080;SDS011;3582;51.506;11.948;2022-08-19T04:11:44;65.43;;;57.23;;
7080;SDS011;3582;51.506;11.948;2022-08-19T04:14:19;66.17;;;56.37;;
7080;SDS011;3582;51.506;11.948;2022-08-19T04:16:46;68.43;;;60.27;;
7080;SDS011;3582;51.506;11.948;2022-08-19T04:19:12;60.30;;;53.73;;
7080;SDS011;3582;51.506;11.948;2022-08-19T04:21:38;68.10;;;53.60;;
7080;SDS011;3582;51.506;11.948;2022-08-19T04:24:05;63.00;;;54.73;;
7080;SDS011;3582;51.506;11.948;2022-08-19T04:26:34;63.17;;;56.20;;
7080;SDS011;3582;51.506;11.948;2022-08-19T04:29:02;59.80;;;53.57;;
7080;SDS011;3582;51.506;11.948;2022-08-19T04:31:30;62.80;;;54.10;;
7080;SDS011;3582;51.506;11.948;2022-08-19T04:33:58;67.50;;;55.63;;
7080;SDS011;3582;51.506;11.948;2022-08-19T04:36:26;61.20;;;54.43;;
7080;SDS011;3582;51.506;11.948;2022-08-19T04:38:53;59.70;;;51.37;;
7080;SDS011;3582;51.506;11.948;2022-08-19T04:41:19;59.90;;;52.50;;
7080;SDS011;3582;51.506;11.948;2022-08-19T04:44:03;57.83;;;51.50;;
7080;SDS011;3582;51.506;11.948;2022-08-19T04:46:30;59.50;;;48.43;;
7080;SDS011;3582;51.506;11.948;2022-08-19T04:49:00;62.93;;;49.67;;
7080;SDS011;3582;51.506;11.948;2022-08-19T04:51:26;58.80;;;49.07;;
7080;SDS011;3582;51.506;11.948;2022-08-19T04:53:52;53.13;;;47.50;;
7080;SDS011;3582;51.506;11.948;2022-08-19T04:56:20;53.57;;;47.30;;
7080;SDS011;3582;51.506;11.948;2022-08-19T04:58:47;52.13;;;45.30;;
7080;SDS011;3582;51.506;11.948;2022-08-19T05:01:20;52.43;;;46.57;;
7080;SDS011;3582;51.506;11.948;2022-08-19T05:03:46;54.50;;;47.17;;
7080;SDS011;3582;51.506;11.948;2022-08-19T05:06:13;61.17;;;47.00;;
7080;SDS011;3582;51.506;11.948;2022-08-19T05:08:40;51.67;;;46.27;;
7080;SDS011;3582;51.506;11.948;2022-08-19T05:13:40;55.43;;;44.57;;
7080;SDS011;3582;51.506;11.948;2022-08-19T05:16:06;50.67;;;45.43;;
7080;SDS011;3582;51.506;11.948;2022-08-19T05:18:32;57.80;;;47.40;;
7080;SDS011;3582;51.506;11.948;2022-08-19T05:21:17;49.43;;;44.27;;
7080;SDS011;3582;51.506;11.948;2022-08-19T05:24:10;53.80;;;47.53;;
7080;SDS011;3582;51.506;11.948;2022-08-19T05:26:37;51.97;;;46.40;;
7080;SDS011;3582;51.506;11.948;2022-08-19T05:29:03;55.53;;;45.30;;
7080;SDS011;3582;51.506;11.948;2022-08-19T05:31:30;50.50;;;43.83;;
7080;SDS011;3582;51.506;11.948;2022-08-19T05:33:56;49.87;;;42.27;;
7080;SDS011;3582;51.506;11.948;2022-08-19T05:36:23;58.60;;;45.90;;
7080;SDS011;3582;51.506;11.948;2022-08-19T05:38:49;48.33;;;43.07;;
7080;SDS011;3582;51.506;11.948;2022-08-19T05:41:17;48.13;;;39.87;;
7080;SDS011;3582;51.506;11.948;2022-08-19T05:43:42;44.00;;;39.37;;
7080;SDS011;3582;51.506;11.948;2022-08-19T05:46:08;43.00;;;38.27;;
7080;SDS011;3582;51.506;11.948;2022-08-19T05:48:41;41.13;;;36.90;;
7080;SDS011;3582;51.506;11.948;2022-08-19T05:51:07;42.30;;;38.00;;
7080;SDS011;3582;51.506;11.948;2022-08-19T05:53:33;43.60;;;34.73;;
7080;SDS011;3582;51.506;11.948;2022-08-19T05:56:10;40.80;;;33.77;;
7080;SDS011;3582;51.506;11.948;2022-08-19T05:58:37;38.53;;;32.93;;
7080;SDS011;3582;51.506;11.948;2022-08-19T06:01:13;38.13;;;33.03;;
7080;SDS011;3582;51.506;11.948;2022-08-19T06:03:39;38.80;;;31.03;;
7080;SDS011;3582;51.506;11.948;2022-08-19T06:06:06;38.20;;;33.40;;
7080;SDS011;3582;51.506;11.948;2022-08-19T06:08:32;37.67;;;32.97;;
7080;SDS011;3582;51.506;11.948;2022-08-19T06:11:11;34.03;;;30.50;;
7080;SDS011;3582;51.506;11.948;2022-08-19T06:13:37;33.40;;;29.67;;
7080;SDS011;3582;51.506;11.948;2022-08-19T06:16:03;31.03;;;27.73;;
7080;SDS011;3582;51.506;11.948;2022-08-19T06:18:29;31.17;;;27.90;;
7080;SDS011;3582;51.506;11.948;2022-08-19T06:20:55;29.97;;;26.80;;
7080;SDS011;3582;51.506;11.948;2022-08-19T06:23:21;27.73;;;25.13;;
7080;SDS011;3582;51.506;11.948;2022-08-19T06:25:47;29.33;;;25.67;;
7080;SDS011;3582;51.506;11.948;2022-08-19T06:28:13;30.87;;;27.53;;
7080;SDS011;3582;51.506;11.948;2022-08-19T06:30:39;25.67;;;22.80;;
7080;SDS011;3582;51.506;11.948;2022-08-19T06:33:05;27.67;;;24.80;;
7080;SDS011;3582;51.506;11.948;2022-08-19T06:35:31;29.60;;;24.93;;
7080;SDS011;3582;51.506;11.948;2022-08-19T06:37:57;26.30;;;23.60;;
7080;SDS011;3582;51.506;11.948;2022-08-19T06:40:23;26.30;;;23.63;;
7080;SDS011;3582;51.506;11.948;2022-08-19T06:42:52;25.13;;;21.80;;
7080;SDS011;3582;51.506;11.948;2022-08-19T06:45:18;24.53;;;22.20;;
7080;SDS011;3582;51.506;11.948;2022-08-19T06:47:45;25.90;;;22.20;;
7080;SDS011;3582;51.506;11.948;2022-08-19T06:50:13;24.77;;;22.23;;
7080;SDS011;3582;51.506;11.948;2022-08-19T06:52:39;24.63;;;22.23;;
7080;SDS011;3582;51.506;11.948;2022-08-19T06:55:05;24.83;;;22.33;;
7080;SDS011;3582;51.506;11.948;2022-08-19T06:57:31;23.87;;;21.43;;
7080;SDS011;3582;51.506;11.948;2022-08-19T06:59:57;23.27;;;20.43;;
7080;SDS011;3582;51.506;11.948;2022-08-19T07:02:24;24.60;;;21.67;;
7080;SDS011;3582;51.506;11.948;2022-08-19T07:04:51;26.13;;;23.30;;
7080;SDS011;3582;51.506;11.948;2022-08-19T07:07:18;27.73;;;21.33;;
7080;SDS011;3582;51.506;11.948;2022-08-19T07:09:44;25.13;;;22.17;;
7080;SDS011;3582;51.506;11.948;2022-08-19T07:12:11;25.00;;;22.30;;
7080;SDS011;3582;51.506;11.948;2022-08-19T07:14:40;25.83;;;21.00;;
7080;SDS011;3582;51.506;11.948;2022-08-19T07:17:08;25.13;;;21.07;;
7080;SDS011;3582;51.506;11.948;2022-08-19T07:19:35;26.67;;;23.80;;
7080;SDS011;3582;51.506;11.948;2022-08-19T07:22:02;27.47;;;24.67;;
7080;SDS011;3582;51.506;11.948;2022-08-19T07:24:28;23.77;;;21.47;;
7080;SDS011;3582;51.506;11.948;2022-08-19T07:26:55;26.03;;;23.43;;
7080;SDS011;3582;51.506;11.948;2022-08-19T07:29:25;26.40;;;23.50;;
7080;SDS011;3582;51.506;11.948;2022-08-19T07:31:51;21.90;;;19.87;;
7080;SDS011;3582;51.506;11.948;2022-08-19T07:34:19;25.00;;;22.60;;
7080;SDS011;3582;51.506;11.948;2022-08-19T07:36:45;29.70;;;22.57;;
7080;SDS011;3582;51.506;11.948;2022-08-19T07:39:13;26.30;;;21.83;;
7080;SDS011;3582;51.506;11.948;2022-08-19T07:41:40;26.37;;;21.33;;
7080;SDS011;3582;51.506;11.948;2022-08-19T07:44:07;27.87;;;23.50;;
7080;SDS011;3582;51.506;11.948;2022-08-19T07:46:33;21.57;;;19.33;;
7080;SDS011;3582;51.506;11.948;2022-08-19T07:49:00;22.37;;;20.17;;
7080;SDS011;3582;51.506;11.948;2022-08-19T07:51:26;25.03;;;22.43;;
7080;SDS011;3582;51.506;11.948;2022-08-19T07:53:52;24.13;;;21.60;;
7080;SDS011;3582;51.506;11.948;2022-08-19T07:56:19;25.23;;;21.67;;
7080;SDS011;3582;51.506;11.948;2022-08-19T07:58:46;23.90;;;21.37;;
7080;SDS011;3582;51.506;11.948;2022-08-19T08:01:13;26.30;;;22.37;;
7080;SDS011;3582;51.506;11.948;2022-08-19T08:03:40;24.93;;;22.17;;
7080;SDS011;3582;51.506;11.948;2022-08-19T08:06:25;24.17;;;21.97;;
7080;SDS011;3582;51.506;11.948;2022-08-19T08:09:09;23.03;;;20.73;;
7080;SDS011;3582;51.506;11.948;2022-08-19T08:11:39;26.50;;;23.40;;
7080;SDS011;3582;51.506;11.948;2022-08-19T08:14:07;24.60;;;21.10;;
7080;SDS011;3582;51.506;11.948;2022-08-19T08:16:34;31.83;;;21.17;;
7080;SDS011;3582;51.506;11.948;2022-08-19T08:19:01;21.47;;;19.20;;
7080;SDS011;3582;51.506;11.948;2022-08-19T08:21:27;25.13;;;21.10;;
7080;SDS011;3582;51.506;11.948;2022-08-19T08:23:53;22.03;;;19.63;;
7080;SDS011;3582;51.506;11.948;2022-08-19T08:26:20;26.90;;;20.53;;
7080;SDS011;3582;51.506;11.948;2022-08-19T08:28:46;23.73;;;21.23;;
7080;SDS011;3582;51.506;11.948;2022-08-19T08:31:13;22.10;;;20.00;;
7080;SDS011;3582;51.506;11.948;2022-08-19T08:33:39;22.50;;;20.00;;
7080;SDS011;3582;51.506;11.948;2022-08-19T08:36:07;23.63;;;20.40;;
7080;SDS011;3582;51.506;11.948;2022-08-19T08:38:33;22.53;;;20.10;;
7080;SDS011;3582;51.506;11.948;2022-08-19T08:41:01;25.70;;;23.10;;
7080;SDS011;3582;51.506;11.948;2022-08-19T08:46:01;21.23;;;17.70;;
7080;SDS011;3582;51.506;11.948;2022-08-19T08:51:02;22.00;;;19.77;;
7080;SDS011;3582;51.506;11.948;2022-08-19T08:53:28;18.73;;;16.97;;
7080;SDS011;3582;51.506;11.948;2022-08-19T08:55:56;20.90;;;19.00;;
7080;SDS011;3582;51.506;11.948;2022-08-19T08:58:28;19.40;;;17.50;;
7080;SDS011;3582;51.506;11.948;2022-08-19T09:00:55;20.83;;;18.83;;
7080;SDS011;3582;51.506;11.948;2022-08-19T09:03:23;17.93;;;16.40;;
7080;SDS011;3582;51.506;11.948;2022-08-19T09:16:31;17.53;;;15.90;;
7080;SDS011;3582;51.506;11.948;2022-08-19T09:19:01;19.00;;;17.10;;
7080;SDS011;3582;51.506;11.948;2022-08-19T09:21:28;16.90;;;15.20;;
7080;SDS011;3582;51.506;11.948;2022-08-19T09:23:54;20.23;;;18.30;;
7080;SDS011;3582;51.506;11.948;2022-08-19T09:26:20;18.20;;;16.70;;
7080;SDS011;3582;51.506;11.948;2022-08-19T09:28:49;17.97;;;16.17;;
7080;SDS011;3582;51.506;11.948;2022-08-19T09:31:19;22.73;;;16.23;;
7080;SDS011;3582;51.506;11.948;2022-08-19T09:33:46;20.73;;;18.13;;
7080;SDS011;3582;51.506;11.948;2022-08-19T09:36:13;17.70;;;16.00;;
7080;SDS011;3582;51.506;11.948;2022-08-19T09:38:40;18.00;;;16.30;;
7080;SDS011;3582;51.506;11.948;2022-08-19T09:41:07;19.60;;;17.27;;
7080;SDS011;3582;51.506;11.948;2022-08-19T09:43:33;17.90;;;16.00;;
7080;SDS011;3582;51.506;11.948;2022-08-19T09:46:01;17.70;;;15.93;;
7080;SDS011;3582;51.506;11.948;2022-08-19T09:48:27;20.27;;;17.80;;
7080;SDS011;3582;51.506;11.948;2022-08-19T09:50:53;17.87;;;16.03;;
7080;SDS011;3582;51.506;11.948;2022-08-19T09:53:19;17.10;;;15.50;;
7080;SDS011;3582;51.506;11.948;2022-08-19T09:55:47;18.47;;;16.53;;
7080;SDS011;3582;51.506;11.948;2022-08-19T09:58:13;17.73;;;16.10;;
7080;SDS011;3582;51.506;11.948;2022-08-19T10:00:39;16.87;;;15.07;;
7080;SDS011;3582;51.506;11.948;2022-08-19T10:03:05;17.13;;;15.27;;
7080;SDS011;3582;51.506;11.948;2022-08-19T10:05:31;19.40;;;15.13;;
7080;SDS011;3582;51.506;11.948;2022-08-19T10:08:16;15.73;;;14.13;;
7080;SDS011;3582;51.506;11.948;2022-08-19T10:10:43;14.27;;;12.87;;
7080;SDS011;3582;51.506;11.948;2022-08-19T10:13:09;14.80;;;13.40;;
7080;SDS011;3582;51.506;11.948;2022-08-19T10:15:35;16.20;;;14.80;;
7080;SDS011;3582;51.506;11.948;2022-08-19T10:18:04;16.97;;;15.20;;
7080;SDS011;3582;51.506;11.948;2022-08-19T10:20:29;14.77;;;13.30;;
7080;SDS011;3582;51.506;11.948;2022-08-19T10:22:55;15.60;;;14.07;;
7080;SDS011;3582;51.506;11.948;2022-08-19T10:25:24;16.10;;;14.47;;
7080;SDS011;3582;51.506;11.948;2022-08-19T10:27:51;17.97;;;16.27;;
7080;SDS011;3582;51.506;11.948;2022-08-19T10:30:17;16.87;;;15.27;;
7080;SDS011;3582;51.506;11.948;2022-08-19T10:32:43;16.47;;;14.47;;
7080;SDS011;3582;51.506;11.948;2022-08-19T10:35:11;15.17;;;13.33;;
7080;SDS011;3582;51.506;11.948;2022-08-19T10:37:37;18.50;;;14.00;;
7080;SDS011;3582;51.506;11.948;2022-08-19T10:40:04;17.07;;;15.40;;
7080;SDS011;3582;51.506;11.948;2022-08-19T10:42:32;14.90;;;13.53;;
7080;SDS011;3582;51.506;11.948;2022-08-19T10:44:58;16.20;;;14.60;;
7080;SDS011;3582;51.506;11.948;2022-08-19T10:47:24;15.30;;;14.00;;
7080;SDS011;3582;51.506;11.948;2022-08-19T10:49:50;16.00;;;13.77;;
7080;SDS011;3582;51.506;11.948;2022-08-19T10:52:40;13.67;;;12.30;;
7080;SDS011;3582;51.506;11.948;2022-08-19T10:55:07;13.20;;;11.80;;
7080;SDS011;3582;51.506;11.948;2022-08-19T10:57:51;13.60;;;12.20;;
7080;SDS011;3582;51.506;11.948;2022-08-19T11:00:18;26.87;;;12.63;;
7080;SDS011;3582;51.506;11.948;2022-08-19T11:02:44;14.40;;;13.00;;
7080;SDS011;3582;51.506;11.948;2022-08-19T11:05:11;13.40;;;12.30;;
7080;SDS011;3582;51.506;11.948;2022-08-19T11:07:38;15.80;;;13.37;;
7080;SDS011;3582;51.506;11.948;2022-08-19T11:10:05;14.07;;;12.83;;
7080;SDS011;3582;51.506;11.948;2022-08-19T11:12:31;16.10;;;14.60;;
7080;SDS011;3582;51.506;11.948;2022-08-19T11:14:58;14.83;;;13.40;;
7080;SDS011;3582;51.506;11.948;2022-08-19T11:17:24;15.97;;;14.57;;
7080;SDS011;3582;51.506;11.948;2022-08-19T11:19:50;17.57;;;15.47;;
7080;SDS011;3582;51.506;11.948;2022-08-19T11:22:16;15.33;;;14.03;;
7080;SDS011;3582;51.506;11.948;2022-08-19T11:24:42;16.03;;;14.53;;
7080;SDS011;3582;51.506;11.948;2022-08-19T11:27:09;16.27;;;14.80;;
7080;SDS011;3582;51.506;11.948;2022-08-19T11:29:39;15.23;;;13.93;;
7080;SDS011;3582;51.506;11.948;2022-08-19T11:32:09;17.67;;;16.17;;
7080;SDS011;3582;51.506;11.948;2022-08-19T11:34:35;19.03;;;16.53;;
7080;SDS011;3582;51.506;11.948;2022-08-19T11:37:02;16.47;;;14.87;;
7080;SDS011;3582;51.506;11.948;2022-08-19T11:39:29;15.97;;;14.50;;
7080;SDS011;3582;51.506;11.948;2022-08-19T11:41:57;15.80;;;14.30;;
7080;SDS011;3582;51.506;11.948;2022-08-19T11:44:23;13.70;;;12.47;;
7080;SDS011;3582;51.506;11.948;2022-08-19T11:46:50;16.50;;;14.80;;
7080;SDS011;3582;51.506;11.948;2022-08-19T11:49:17;16.67;;;14.93;;
7080;SDS011;3582;51.506;11.948;2022-08-19T11:51:44;16.33;;;14.73;;
7080;SDS011;3582;51.506;11.948;2022-08-19T11:54:10;16.30;;;14.77;;
7080;SDS011;3582;51.506;11.948;2022-08-19T11:56:37;15.73;;;14.20;;
7080;SDS011;3582;51.506;11.948;2022-08-19T11:59:03;15.33;;;13.83;;
7080;SDS011;3582;51.506;11.948;2022-08-19T12:01:29;15.87;;;12.73;;
7080;SDS011;3582;51.506;11.948;2022-08-19T12:03:56;15.90;;;14.40;;
7080;SDS011;3582;51.506;11.948;2022-08-19T12:06:24;16.93;;;15.30;;
7080;SDS011;3582;51.506;11.948;2022-08-19T12:08:52;15.47;;;13.83;;
7080;SDS011;3582;51.506;11.948;2022-08-19T12:11:18;15.10;;;13.70;;
7080;SDS011;3582;51.506;11.948;2022-08-19T12:13:44;14.43;;;12.93;;
7080;SDS011;3582;51.506;11.948;2022-08-19T12:16:20;15.40;;;13.90;;
7080;SDS011;3582;51.506;11.948;2022-08-19T12:18:47;14.00;;;12.73;;
7080;SDS011;3582;51.506;11.948;2022-08-19T12:21:16;15.10;;;13.90;;
7080;SDS011;3582;51.506;11.948;2022-08-19T12:23:43;14.07;;;12.70;;
7080;SDS011;3582;51.506;11.948;2022-08-19T12:26:12;14.03;;;12.83;;
7080;SDS011;3582;51.506;11.948;2022-08-19T12:28:38;13.43;;;12.40;;
7080;SDS011;3582;51.506;11.948;2022-08-19T12:31:04;14.90;;;12.47;;
7080;SDS011;3582;51.506;11.948;2022-08-19T12:33:30;14.30;;;13.00;;
7080;SDS011;3582;51.506;11.948;2022-08-19T12:35:59;13.20;;;11.73;;
7080;SDS011;3582;51.506;11.948;2022-08-19T12:38:27;13.47;;;12.30;;
7080;SDS011;3582;51.506;11.948;2022-08-19T12:40:53;13.00;;;11.90;;
7080;SDS011;3582;51.506;11.948;2022-08-19T12:43:20;14.30;;;13.00;;
7080;SDS011;3582;51.506;11.948;2022-08-19T12:45:46;14.77;;;13.33;;
7080;SDS011;3582;51.506;11.948;2022-08-19T12:48:13;11.83;;;10.83;;
7080;SDS011;3582;51.506;11.948;2022-08-19T12:50:41;13.10;;;11.80;;
7080;SDS011;3582;51.506;11.948;2022-08-19T12:53:08;10.30;;;9.50;;
7080;SDS011;3582;51.506;11.948;2022-08-19T12:55:34;11.13;;;10.10;;
7080;SDS011;3582;51.506;11.948;2022-08-19T12:58:00;11.50;;;10.47;;
7080;SDS011;3582;51.506;11.948;2022-08-19T13:00:26;10.07;;;9.27;;
7080;SDS011;3582;51.506;11.948;2022-08-19T13:02:55;13.40;;;11.77;;
7080;SDS011;3582;51.506;11.948;2022-08-19T13:05:24;12.63;;;11.33;;
7080;SDS011;3582;51.506;11.948;2022-08-19T13:07:51;12.43;;;11.33;;
7080;SDS011;3582;51.506;11.948;2022-08-19T13:10:20;12.77;;;11.67;;
7080;SDS011;3582;51.506;11.948;2022-08-19T13:12:50;15.87;;;14.43;;
7080;SDS011;3582;51.506;11.948;2022-08-19T13:15:16;15.27;;;13.77;;
7080;SDS011;3582;51.506;11.948;2022-08-19T13:17:45;16.60;;;14.23;;
7080;SDS011;3582;51.506;11.948;2022-08-19T13:20:13;19.10;;;15.87;;
7080;SDS011;3582;51.506;11.948;2022-08-19T13:22:39;21.93;;;19.67;;
7080;SDS011;3582;51.506;11.948;2022-08-19T13:25:05;20.60;;;18.70;;
7080;SDS011;3582;51.506;11.948;2022-08-19T13:27:32;20.13;;;18.03;;
7080;SDS011;3582;51.506;11.948;2022-08-19T13:29:58;25.10;;;22.60;;
7080;SDS011;3582;51.506;11.948;2022-08-19T13:32:43;24.63;;;22.03;;
7080;SDS011;3582;51.506;11.948;2022-08-19T13:35:27;24.90;;;20.90;;
7080;SDS011;3582;51.506;11.948;2022-08-19T13:37:53;24.67;;;20.10;;
7080;SDS011;3582;51.506;11.948;2022-08-19T13:40:20;23.47;;;21.27;;
7080;SDS011;3582;51.506;11.948;2022-08-19T13:42:49;26.40;;;22.20;;
7080;SDS011;3582;51.506;11.948;2022-08-19T13:45:16;21.87;;;19.73;;
7080;SDS011;3582;51.506;11.948;2022-08-19T13:47:45;21.60;;;19.50;;
7080;SDS011;3582;51.506;11.948;2022-08-19T13:50:12;23.63;;;21.37;;
7080;SDS011;3582;51.506;11.948;2022-08-19T13:52:38;22.43;;;20.10;;
7080;SDS011;3582;51.506;11.948;2022-08-19T13:55:05;25.37;;;22.10;;
7080;SDS011;3582;51.506;11.948;2022-08-19T13:57:31;23.37;;;20.87;;
7080;SDS011;3582;51.506;11.948;2022-08-19T13:59:57;26.00;;;23.27;;
7080;SDS011;3582;51.506;11.948;2022-08-19T14:02:23;25.40;;;22.80;;
7080;SDS011;3582;51.506;11.948;2022-08-19T14:04:49;27.63;;;24.73;;
7080;SDS011;3582;51.506;11.948;2022-08-19T14:07:15;23.60;;;21.27;;
7080;SDS011;3582;51.506;11.948;2022-08-19T14:09:41;25.47;;;22.97;;
7080;SDS011;3582;51.506;11.948;2022-08-19T14:12:07;25.50;;;22.83;;
7080;SDS011;3582;51.506;11.948;2022-08-19T14:14:37;25.43;;;22.63;;
7080;SDS011;3582;51.506;11.948;2022-08-19T14:17:06;29.10;;;26.13;;
7080;SDS011;3582;51.506;11.948;2022-08-19T14:19:33;24.23;;;22.00;;
7080;SDS011;3582;51.506;11.948;2022-08-19T14:21:58;26.50;;;23.93;;
7080;SDS011;3582;51.506;11.948;2022-08-19T14:24:24;25.23;;;22.70;;
7080;SDS011;3582;51.506;11.948;2022-08-19T14:26:50;26.40;;;22.53;;
7080;SDS011;3582;51.506;11.948;2022-08-19T14:29:16;25.90;;;23.40;;
7080;SDS011;3582;51.506;11.948;2022-08-19T14:31:42;24.33;;;22.13;;
7080;SDS011;3582;51.506;11.948;2022-08-19T14:34:08;26.60;;;21.70;;
7080;SDS011;3582;51.506;11.948;2022-08-19T14:36:35;22.63;;;20.63;;
7080;SDS011;3582;51.506;11.948;2022-08-19T14:39:01;23.47;;;19.40;;
7080;SDS011;3582;51.506;11.948;2022-08-19T14:41:27;22.07;;;19.57;;
7080;SDS011;3582;51.506;11.948;2022-08-19T14:43:55;22.00;;;18.07;;
7080;SDS011;3582;51.506;11.948;2022-08-19T14:46:22;20.43;;;18.53;;
7080;SDS011;3582;51.506;11.948;2022-08-19T14:48:48;20.07;;;18.03;;
7080;SDS011;3582;51.506;11.948;2022-08-19T14:51:15;20.60;;;18.57;;
7080;SDS011;3582;51.506;11.948;2022-08-19T14:53:41;20.00;;;18.10;;
7080;SDS011;3582;51.506;11.948;2022-08-19T14:56:08;22.70;;;19.90;;
7080;SDS011;3582;51.506;11.948;2022-08-19T14:58:34;19.53;;;17.37;;
7080;SDS011;3582;51.506;11.948;2022-08-19T15:01:01;20.37;;;18.50;;